Time;durP1;ratioP1;P1;durP2;ratioP2;P2;SDS_P1;SDS_P2;PMS_P1;PMS_P2;Temp;Humidity;BMP_temperature;BMP_pressure;BME280_temperature;BME280_humidity;BME280_pressure;Samples;Min_cycle;Max_cycle;Signal;HPM_P1;HPM_P2
2021/12/01 00:00:58;;;;;;;77.93;10.13;;;;;;;;;;5000522;28;20696;-55
2021/12/01 00:03:24;;;;;;;88.43;11.60;;;;;;;;;;4993158;28;20633;-54
2021/12/01 00:05:50;;;;;;;109.10;13.83;;;;;;;;;;4999208;28;20231;-55
2021/12/01 00:08:16;;;;;;;94.30;12.20;;;;;;;;;;5000912;28;20296;-55
2021/12/01 00:10:43;;;;;;;54.70;7.17;;;;;;;;;;4994485;28;20182;-55
2021/12/01 00:13:14;;;;;;;61.97;8.13;;;;;;;;;;4999238;28;20303;-55
2021/12/01 00:15:44;;;;;;;65.90;8.57;;;;;;;;;;4996118;28;20693;-54
2021/12/01 00:18:09;;;;;;;88.70;11.40;;;;;;;;;;4999684;28;20495;-54
2021/12/01 00:20:36;;;;;;;61.20;8.13;;;;;;;;;;4999520;28;20234;-55
2021/12/01 00:23:02;;;;;;;88.13;11.13;;;;;;;;;;4997881;28;20342;-54
2021/12/01 00:25:29;;;;;;;67.20;8.77;;;;;;;;;;5004078;28;20216;-55
2021/12/01 00:27:55;;;;;;;61.40;8.20;;;;;;;;;;4983923;28;20287;-55
2021/12/01 00:30:22;;;;;;;76.57;10.10;;;;;;;;;;4977853;28;20347;-54
2021/12/01 00:32:48;;;;;;;69.73;9.27;;;;;;;;;;5001084;28;20232;-54
2021/12/01 00:35:14;;;;;;;91.37;11.93;;;;;;;;;;4998553;28;20232;-55
2021/12/01 00:37:41;;;;;;;107.63;13.70;;;;;;;;;;4999305;28;20310;-55
2021/12/01 00:40:08;;;;;;;85.73;11.13;;;;;;;;;;4998799;28;20601;-55
2021/12/01 00:42:33;;;;;;;77.20;10.17;;;;;;;;;;5000966;28;20216;-55
2021/12/01 00:45:06;;;;;;;72.17;9.60;;;;;;;;;;5001003;28;20298;-54
2021/12/01 00:47:43;;;;;;;85.70;11.23;;;;;;;;;;4999311;28;20252;-54
2021/12/01 00:50:14;;;;;;;103.00;13.30;;;;;;;;;;4999685;28;20250;-54
2021/12/01 00:52:39;;;;;;;58.97;7.77;;;;;;;;;;5004876;28;20597;-55
2021/12/01 00:55:06;;;;;;;64.03;8.57;;;;;;;;;;4994375;28;20224;-54
2021/12/01 00:57:32;;;;;;;70.67;9.37;;;;;;;;;;4996685;28;20244;-55
2021/12/01 00:59:58;;;;;;;50.70;7.00;;;;;;;;;;5002623;28;20350;-55
2021/12/01 01:02:24;;;;;;;85.43;10.90;;;;;;;;;;4997618;28;20267;-55
2021/12/01 01:04:50;;;;;;;74.77;9.83;;;;;;;;;;5000642;28;20542;-54
2021/12/01 01:07:16;;;;;;;76.47;9.90;;;;;;;;;;4997131;28;20567;-55
2021/12/01 01:09:43;;;;;;;53.77;7.23;;;;;;;;;;4999863;28;20220;-55
2021/12/01 01:17:40;;;;;;;77.57;10.20;;;;;;;;;;5005007;28;20232;-54
2021/12/01 01:20:08;;;;;;;64.37;8.53;;;;;;;;;;4999313;28;20189;-54
2021/12/01 01:22:34;;;;;;;75.97;9.83;;;;;;;;;;4993261;28;20220;-55
2021/12/01 01:25:00;;;;;;;58.90;7.77;;;;;;;;;;4994735;28;20292;-54
2021/12/01 01:27:26;;;;;;;73.60;9.73;;;;;;;;;;4996404;28;20225;-55
2021/12/01 01:29:52;;;;;;;55.33;7.30;;;;;;;;;;4997548;28;20228;-55
2021/12/01 01:32:18;;;;;;;81.53;10.60;;;;;;;;;;4983576;28;20220;-55
2021/12/01 01:34:44;;;;;;;72.07;9.27;;;;;;;;;;4997218;28;20217;-55
2021/12/01 01:37:10;;;;;;;55.33;7.63;;;;;;;;;;4994929;28;20293;-55
2021/12/01 01:39:36;;;;;;;59.70;8.10;;;;;;;;;;4995428;28;20224;-55
2021/12/01 01:42:02;;;;;;;84.80;11.20;;;;;;;;;;4999961;28;20244;-54
2021/12/01 01:44:30;;;;;;;65.87;8.70;;;;;;;;;;4995695;28;20352;-54
2021/12/01 01:46:56;;;;;;;73.80;9.60;;;;;;;;;;4999324;28;20200;-54
2021/12/01 01:49:35;;;;;;;66.67;8.57;;;;;;;;;;4999102;28;20251;-55
2021/12/01 01:52:01;;;;;;;64.40;8.77;;;;;;;;;;4993393;28;20209;-55
2021/12/01 01:54:27;;;;;;;59.63;7.93;;;;;;;;;;5003748;28;20224;-54
2021/12/01 01:56:53;;;;;;;68.13;9.13;;;;;;;;;;4999265;28;20212;-55
2021/12/01 01:59:19;;;;;;;77.47;10.17;;;;;;;;;;4997338;28;20408;-55
2021/12/01 02:01:45;;;;;;;74.63;9.83;;;;;;;;;;4987566;28;20251;-54
2021/12/01 02:04:13;;;;;;;96.67;12.47;;;;;;;;;;4996404;28;20616;-55
2021/12/01 02:06:39;;;;;;;78.70;10.33;;;;;;;;;;4991573;28;20217;-55
2021/12/01 02:09:06;;;;;;;100.93;13.03;;;;;;;;;;4992777;28;20692;-54
2021/12/01 02:11:33;;;;;;;79.03;10.30;;;;;;;;;;4990827;28;20216;-55
2021/12/01 02:13:59;;;;;;;86.53;11.43;;;;;;;;;;4994175;28;20213;-54
2021/12/01 02:16:25;;;;;;;106.10;13.90;;;;;;;;;;4967252;28;20884;-55
2021/12/01 02:18:51;;;;;;;77.20;10.10;;;;;;;;;;4994288;28;20300;-54
2021/12/01 02:21:24;;;;;;;88.67;11.60;;;;;;;;;;4991228;28;20229;-55
2021/12/01 02:23:51;;;;;;;55.60;7.50;;;;;;;;;;4996347;28;20821;-55
2021/12/01 02:26:18;;;;;;;127.80;16.23;;;;;;;;;;4992851;28;20299;-55
2021/12/01 02:28:46;;;;;;;98.67;12.80;;;;;;;;;;4992124;28;20189;-55
2021/12/01 02:31:13;;;;;;;41.87;5.77;;;;;;;;;;4992207;28;20267;-55
2021/12/01 02:33:39;;;;;;;81.47;10.57;;;;;;;;;;4999409;28;20228;-55
2021/12/01 02:36:08;;;;;;;90.07;11.87;;;;;;;;;;4989739;28;20216;-54
2021/12/01 02:38:34;;;;;;;73.00;9.77;;;;;;;;;;4994299;28;20213;-54
2021/12/01 02:41:00;;;;;;;81.97;11.07;;;;;;;;;;4990318;28;20192;-55
2021/12/01 02:43:28;;;;;;;76.37;10.03;;;;;;;;;;4976041;28;20793;-54
2021/12/01 02:45:55;;;;;;;72.57;9.53;;;;;;;;;;4994231;28;20213;-54
2021/12/01 02:48:21;;;;;;;77.07;10.27;;;;;;;;;;4996202;28;22461;-54
2021/12/01 02:50:48;;;;;;;81.97;10.83;;;;;;;;;;4993602;28;20641;-55
2021/12/01 02:53:14;;;;;;;65.93;8.83;;;;;;;;;;4997708;28;20695;-55
2021/12/01 02:56:00;;;;;;;90.13;11.73;;;;;;;;;;4995368;28;20628;-54
2021/12/01 02:58:28;;;;;;;90.87;11.93;;;;;;;;;;4988278;28;20218;-54
2021/12/01 03:00:55;;;;;;;81.87;10.90;;;;;;;;;;4989273;28;20209;-54
2021/12/01 03:03:21;;;;;;;83.77;11.00;;;;;;;;;;4992997;28;20892;-55
2021/12/01 03:05:48;;;;;;;79.57;10.27;;;;;;;;;;4992189;28;20239;-54
2021/12/01 03:08:15;;;;;;;88.93;11.87;;;;;;;;;;4991439;28;20463;-54
2021/12/01 03:10:41;;;;;;;93.43;11.97;;;;;;;;;;4988492;28;20177;-55
2021/12/01 03:13:07;;;;;;;93.83;11.90;;;;;;;;;;4993486;28;20689;-55
2021/12/01 03:15:33;;;;;;;56.07;7.40;;;;;;;;;;4993942;28;20221;-55
2021/12/01 03:18:00;;;;;;;108.17;13.43;;;;;;;;;;4996256;28;20576;-55
2021/12/01 03:20:28;;;;;;;98.13;12.33;;;;;;;;;;4989945;28;20259;-55
2021/12/01 03:22:54;;;;;;;96.33;12.10;;;;;;;;;;4992421;28;20194;-54
2021/12/01 03:25:22;;;;;;;47.43;6.40;;;;;;;;;;4996897;28;20603;-55
2021/12/01 03:27:48;;;;;;;97.23;12.10;;;;;;;;;;4990609;28;20232;-55
2021/12/01 03:30:14;;;;;;;90.60;11.43;;;;;;;;;;4990239;28;20213;-55
2021/12/01 03:32:40;;;;;;;93.63;11.67;;;;;;;;;;4991518;28;20248;-55
2021/12/01 03:35:11;;;;;;;89.20;11.40;;;;;;;;;;5001859;28;20205;-54
2021/12/01 03:37:37;;;;;;;83.47;10.47;;;;;;;;;;4998634;28;20192;-54
2021/12/01 03:40:04;;;;;;;71.40;9.07;;;;;;;;;;4995670;28;20212;-55
2021/12/01 03:42:30;;;;;;;131.70;16.37;;;;;;;;;;4996295;28;20220;-54
2021/12/01 03:44:56;;;;;;;75.17;9.87;;;;;;;;;;4996030;28;20473;-54
2021/12/01 03:47:23;;;;;;;82.23;10.30;;;;;;;;;;4991152;28;20616;-54
2021/12/01 03:49:49;;;;;;;80.93;10.33;;;;;;;;;;5002152;28;20664;-55
2021/12/01 03:52:17;;;;;;;68.57;8.87;;;;;;;;;;4995642;28;20224;-54
2021/12/01 03:54:43;;;;;;;101.10;12.57;;;;;;;;;;4995766;28;20690;-55
2021/12/01 03:57:09;;;;;;;92.30;11.67;;;;;;;;;;4997569;28;20504;-55
2021/12/01 03:59:35;;;;;;;111.90;13.87;;;;;;;;;;4997007;28;20359;-54
2021/12/01 04:02:02;;;;;;;164.10;20.03;;;;;;;;;;4994954;28;20192;-55
2021/12/01 04:04:28;;;;;;;72.70;9.23;;;;;;;;;;4997095;28;20700;-55
2021/12/01 04:06:54;;;;;;;95.97;12.03;;;;;;;;;;4991457;28;20344;-54
2021/12/01 04:09:20;;;;;;;69.17;8.90;;;;;;;;;;5000682;28;20250;-55
2021/12/01 04:11:46;;;;;;;102.13;12.97;;;;;;;;;;5001550;28;20220;-55
2021/12/01 04:14:11;;;;;;;104.50;13.07;;;;;;;;;;4995271;28;20279;-54
2021/12/01 04:16:38;;;;;;;58.83;7.77;;;;;;;;;;4995845;28;20205;-54
2021/12/01 04:19:04;;;;;;;86.40;10.83;;;;;;;;;;4998541;28;20229;-54
2021/12/01 04:21:30;;;;;;;78.63;10.07;;;;;;;;;;5000627;28;20863;-55
2021/12/01 04:23:56;;;;;;;58.93;7.83;;;;;;;;;;4997426;28;20229;-55
2021/12/01 04:26:24;;;;;;;85.17;10.80;;;;;;;;;;5001259;28;20702;-55
2021/12/01 04:28:51;;;;;;;90.67;11.47;;;;;;;;;;4999289;28;20577;-54
2021/12/01 04:31:17;;;;;;;75.13;9.63;;;;;;;;;;5002901;28;20240;-54
2021/12/01 04:33:43;;;;;;;60.47;7.80;;;;;;;;;;5000399;28;20696;-54
2021/12/01 04:36:10;;;;;;;79.60;10.17;;;;;;;;;;4999943;28;20213;-54
2021/12/01 04:38:36;;;;;;;92.13;11.60;;;;;;;;;;4999431;28;20233;-55
2021/12/01 04:41:03;;;;;;;94.13;12.00;;;;;;;;;;5002852;28;20556;-55
2021/12/01 04:43:29;;;;;;;80.50;10.23;;;;;;;;;;5001367;28;20541;-55
2021/12/01 04:45:58;;;;;;;81.03;10.17;;;;;;;;;;4996535;28;20287;-55
2021/12/01 04:48:25;;;;;;;82.20;10.50;;;;;;;;;;4999198;28;20255;-54
2021/12/01 04:50:51;;;;;;;88.37;11.17;;;;;;;;;;4999012;28;20954;-54
2021/12/01 04:53:17;;;;;;;83.27;10.57;;;;;;;;;;5000998;28;20232;-55
2021/12/01 04:55:43;;;;;;;80.13;9.97;;;;;;;;;;5004482;28;20737;-55
2021/12/01 04:58:09;;;;;;;81.83;10.40;;;;;;;;;;5004101;28;20596;-55
2021/12/01 05:00:37;;;;;;;80.80;10.17;;;;;;;;;;4999748;28;20292;-55
2021/12/01 05:03:03;;;;;;;98.97;12.23;;;;;;;;;;4997558;28;20215;-55
2021/12/01 05:05:29;;;;;;;77.87;9.83;;;;;;;;;;4998224;28;20550;-55
2021/12/01 05:07:55;;;;;;;92.37;11.53;;;;;;;;;;4999654;28;20236;-54
2021/12/01 05:10:21;;;;;;;89.47;11.17;;;;;;;;;;5000813;28;20247;-54
2021/12/01 05:12:47;;;;;;;75.13;9.57;;;;;;;;;;4997612;28;20274;-54
2021/12/01 05:15:13;;;;;;;61.73;7.93;;;;;;;;;;4999367;28;20634;-54
2021/12/01 05:17:39;;;;;;;77.60;10.00;;;;;;;;;;4995784;28;20228;-55
2021/12/01 05:20:06;;;;;;;61.47;8.07;;;;;;;;;;4997889;28;20652;-54
2021/12/01 05:22:33;;;;;;;83.30;10.27;;;;;;;;;;4997308;28;20798;-55
2021/12/01 05:24:59;;;;;;;72.97;9.23;;;;;;;;;;4989815;28;20217;-54
2021/12/01 05:27:25;;;;;;;101.20;12.60;;;;;;;;;;5001290;28;20244;-54
2021/12/01 05:29:51;;;;;;;81.10;9.97;;;;;;;;;;4998525;28;20225;-55
2021/12/01 05:32:17;;;;;;;92.70;11.70;;;;;;;;;;4997720;28;20589;-55
2021/12/01 05:34:43;;;;;;;75.03;9.57;;;;;;;;;;5001320;28;20559;-54
2021/12/01 05:37:09;;;;;;;103.40;12.87;;;;;;;;;;5002833;28;20216;-54
2021/12/01 05:39:39;;;;;;;91.83;11.60;;;;;;;;;;4995001;28;20216;-55
2021/12/01 05:42:06;;;;;;;71.27;9.13;;;;;;;;;;4995795;28;20221;-55
2021/12/01 05:44:32;;;;;;;72.80;9.30;;;;;;;;;;4998174;28;20412;-55
2021/12/01 05:46:58;;;;;;;131.27;16.23;;;;;;;;;;4999967;28;20380;-55
2021/12/01 05:49:24;;;;;;;65.17;8.23;;;;;;;;;;4998678;28;20181;-55
2021/12/01 05:51:50;;;;;;;78.73;9.83;;;;;;;;;;4978556;28;20264;-55
2021/12/01 05:54:16;;;;;;;96.60;12.07;;;;;;;;;;4997076;28;20697;-55
2021/12/01 05:56:42;;;;;;;62.50;8.00;;;;;;;;;;5002049;28;20212;-54
2021/12/01 05:59:08;;;;;;;92.53;11.97;;;;;;;;;;4994011;28;20185;-54
2021/12/01 06:01:34;;;;;;;91.07;11.33;;;;;;;;;;4999445;28;20647;-54
2021/12/01 06:04:00;;;;;;;96.30;12.00;;;;;;;;;;4997244;28;20367;-54
2021/12/01 06:06:26;;;;;;;101.80;12.63;;;;;;;;;;4999100;28;20212;-54
2021/12/01 06:08:52;;;;;;;67.80;8.53;;;;;;;;;;4999188;28;20216;-54
2021/12/01 06:11:18;;;;;;;91.17;11.43;;;;;;;;;;4974636;28;20213;-54
2021/12/01 06:13:44;;;;;;;116.63;14.43;;;;;;;;;;4990537;28;20184;-54
2021/12/01 06:16:11;;;;;;;84.43;10.53;;;;;;;;;;4996783;28;20245;-54
2021/12/01 06:18:37;;;;;;;82.37;10.23;;;;;;;;;;5000801;28;20657;-55
2021/12/01 06:21:03;;;;;;;107.03;13.00;;;;;;;;;;4997749;28;20319;-55
2021/12/01 06:23:29;;;;;;;112.70;14.10;;;;;;;;;;4992099;28;20264;-54
2021/12/01 06:25:55;;;;;;;113.13;13.97;;;;;;;;;;4991710;28;20302;-54
2021/12/01 06:28:21;;;;;;;87.03;10.90;;;;;;;;;;4997632;28;20288;-55
2021/12/01 06:30:47;;;;;;;73.67;9.60;;;;;;;;;;4972547;28;20673;-54
2021/12/01 06:33:13;;;;;;;90.27;11.57;;;;;;;;;;4987274;28;20217;-54
2021/12/01 06:35:38;;;;;;;78.87;10.00;;;;;;;;;;4995966;28;20221;-54
2021/12/01 06:38:05;;;;;;;113.60;14.07;;;;;;;;;;4998310;28;20204;-55
2021/12/01 06:40:31;;;;;;;110.20;13.50;;;;;;;;;;4987768;28;20190;-56
2021/12/01 06:42:57;;;;;;;128.77;15.40;;;;;;;;;;4994998;28;20241;-54
2021/12/01 06:45:23;;;;;;;102.23;12.70;;;;;;;;;;4998768;28;20259;-54
2021/12/01 06:47:50;;;;;;;100.33;12.37;;;;;;;;;;4989513;28;20335;-54
2021/12/01 06:50:16;;;;;;;199.87;23.57;;;;;;;;;;4970594;28;20346;-54
2021/12/01 06:52:43;;;;;;;117.70;14.57;;;;;;;;;;4989721;28;20548;-54
2021/12/01 06:55:10;;;;;;;92.60;11.87;;;;;;;;;;4988415;28;20286;-54
2021/12/01 06:57:36;;;;;;;118.87;14.70;;;;;;;;;;4972834;28;20271;-55
2021/12/01 07:00:04;;;;;;;140.37;17.23;;;;;;;;;;4988980;28;20217;-54
2021/12/01 07:02:30;;;;;;;188.30;22.57;;;;;;;;;;4980388;28;20224;-55
2021/12/01 07:04:56;;;;;;;103.90;13.03;;;;;;;;;;4994156;28;20208;-54
2021/12/01 07:07:22;;;;;;;188.90;22.93;;;;;;;;;;4982816;28;20224;-54
2021/12/01 07:09:50;;;;;;;107.40;13.23;;;;;;;;;;4985035;28;20719;-54
2021/12/01 07:12:17;;;;;;;122.77;15.17;;;;;;;;;;4986112;28;20224;-54
2021/12/01 07:14:42;;;;;;;120.67;15.00;;;;;;;;;;4979198;28;20229;-54
2021/12/01 07:17:09;;;;;;;162.97;19.93;;;;;;;;;;4980563;28;20573;-55
2021/12/01 07:19:35;;;;;;;107.67;13.00;;;;;;;;;;4982216;28;20185;-55
2021/12/01 07:22:01;;;;;;;145.57;17.57;;;;;;;;;;4977836;28;20274;-56
2021/12/01 07:24:29;;;;;;;131.50;15.93;;;;;;;;;;4980432;28;20263;-56
2021/12/01 07:26:55;;;;;;;91.83;11.73;;;;;;;;;;4979681;28;20672;-56
2021/12/01 07:29:25;;;;;;;118.87;14.70;;;;;;;;;;4987276;28;20248;-53
2021/12/01 07:31:51;;;;;;;104.77;12.67;;;;;;;;;;4987433;28;20188;-53
2021/12/01 07:34:17;;;;;;;99.07;12.13;;;;;;;;;;4984792;28;20976;-53
2021/12/01 07:36:43;;;;;;;67.23;8.47;;;;;;;;;;4990191;28;20221;-53
2021/12/01 07:39:09;;;;;;;113.17;13.47;;;;;;;;;;4994578;28;20212;-54
2021/12/01 07:41:35;;;;;;;159.57;19.27;;;;;;;;;;4977205;28;20217;-55
2021/12/01 07:44:01;;;;;;;92.00;11.27;;;;;;;;;;4986438;28;20220;-53
2021/12/01 07:46:27;;;;;;;103.10;12.80;;;;;;;;;;5000577;28;20255;-53
2021/12/01 07:48:53;;;;;;;61.80;7.87;;;;;;;;;;4995967;28;20701;-53
2021/12/01 07:51:19;;;;;;;88.83;11.20;;;;;;;;;;5001348;28;20209;-53
2021/12/01 07:53:45;;;;;;;71.23;9.17;;;;;;;;;;5001036;28;20221;-53
2021/12/01 07:56:12;;;;;;;68.47;9.20;;;;;;;;;;4998637;28;20272;-53
2021/12/01 07:58:38;;;;;;;98.60;12.70;;;;;;;;;;4999579;28;20246;-53
2021/12/01 08:01:04;;;;;;;143.70;18.27;;;;;;;;;;4984053;28;20462;-55
2021/12/01 08:03:30;;;;;;;102.33;13.00;;;;;;;;;;4978421;28;20221;-50
2021/12/01 08:05:56;;;;;;;117.97;14.73;;;;;;;;;;4980505;28;20219;-50
2021/12/01 08:08:22;;;;;;;70.87;9.33;;;;;;;;;;4984333;28;20252;-50
2021/12/01 08:10:48;;;;;;;68.77;8.87;;;;;;;;;;4990780;28;20185;-50
2021/12/01 08:13:14;;;;;;;128.63;16.00;;;;;;;;;;4987553;28;20220;-50
2021/12/01 08:15:40;;;;;;;125.57;15.67;;;;;;;;;;4983500;28;20291;-51
2021/12/01 08:18:06;;;;;;;100.23;12.83;;;;;;;;;;4990927;28;20760;-50
2021/12/01 08:20:33;;;;;;;122.83;15.43;;;;;;;;;;4982852;28;20229;-50
2021/12/01 08:22:59;;;;;;;133.63;16.93;;;;;;;;;;4984740;28;20189;-50
2021/12/01 08:25:25;;;;;;;129.37;16.20;;;;;;;;;;4990703;28;20645;-50
2021/12/01 08:27:51;;;;;;;109.90;13.90;;;;;;;;;;4985277;28;20247;-50
2021/12/01 08:30:17;;;;;;;115.93;14.73;;;;;;;;;;4987592;28;20686;-50
2021/12/01 08:32:46;;;;;;;120.90;15.23;;;;;;;;;;4987468;28;20656;-50
2021/12/01 08:35:15;;;;;;;147.77;18.77;;;;;;;;;;4981419;28;20197;-50
2021/12/01 08:37:42;;;;;;;204.47;25.43;;;;;;;;;;4976911;28;20577;-50
2021/12/01 08:40:09;;;;;;;177.90;21.93;;;;;;;;;;4977467;28;20263;-50
2021/12/01 08:42:35;;;;;;;125.33;16.07;;;;;;;;;;4982231;28;20205;-50
2021/12/01 08:45:01;;;;;;;133.27;16.90;;;;;;;;;;4983931;28;20645;-50
2021/12/01 08:47:29;;;;;;;163.40;21.20;;;;;;;;;;4979004;28;20451;-50
2021/12/01 08:49:55;;;;;;;133.60;16.57;;;;;;;;;;4979216;28;20212;-50
2021/12/01 08:52:23;;;;;;;154.60;19.27;;;;;;;;;;4975171;28;20612;-50
2021/12/01 08:54:49;;;;;;;105.20;13.93;;;;;;;;;;4983503;28;20482;-50
2021/12/01 08:57:15;;;;;;;106.10;13.27;;;;;;;;;;4989367;28;20208;-50
2021/12/01 08:59:41;;;;;;;112.60;14.07;;;;;;;;;;4989493;28;20229;-50
2021/12/01 09:02:07;;;;;;;156.80;20.27;;;;;;;;;;4969703;28;20696;-50
2021/12/01 09:04:35;;;;;;;73.80;9.77;;;;;;;;;;4991539;28;20201;-51
2021/12/01 09:07:01;;;;;;;69.57;9.20;;;;;;;;;;4977040;28;20831;-51
2021/12/01 09:09:27;;;;;;;239.90;29.97;;;;;;;;;;4976754;28;20334;-50
2021/12/01 09:11:53;;;;;;;133.23;16.83;;;;;;;;;;4977642;28;20295;-50
2021/12/01 09:14:20;;;;;;;48.23;6.70;;;;;;;;;;4982550;28;20221;-50
2021/12/01 09:16:46;;;;;;;126.53;16.33;;;;;;;;;;4976615;28;20200;-50
2021/12/01 09:19:13;;;;;;;138.57;17.50;;;;;;;;;;4982575;28;20252;-51
2021/12/01 09:21:39;;;;;;;138.20;17.57;;;;;;;;;;4975903;28;20708;-50
2021/12/01 09:24:05;;;;;;;134.07;18.13;;;;;;;;;;4981498;28;20220;-51
2021/12/01 09:26:32;;;;;;;200.87;25.43;;;;;;;;;;4964871;28;21000;-51
2021/12/01 09:28:58;;;;;;;131.83;17.10;;;;;;;;;;4976127;28;20762;-51
2021/12/01 09:31:24;;;;;;;55.47;7.43;;;;;;;;;;4988968;28;20445;-51
2021/12/01 09:33:50;;;;;;;110.57;14.17;;;;;;;;;;4991218;28;20217;-51
2021/12/01 09:36:16;;;;;;;140.40;17.53;;;;;;;;;;4986555;28;20302;-51
2021/12/01 09:38:43;;;;;;;194.07;25.20;;;;;;;;;;4978902;28;20960;-51
2021/12/01 09:41:09;;;;;;;103.97;13.37;;;;;;;;;;4985154;28;20654;-51
2021/12/01 09:43:35;;;;;;;74.30;9.83;;;;;;;;;;4979394;28;20264;-51
2021/12/01 09:46:04;;;;;;;119.90;15.30;;;;;;;;;;4980105;28;20231;-51
2021/12/01 09:48:31;;;;;;;204.40;25.67;;;;;;;;;;4990388;28;20217;-51
2021/12/01 09:50:57;;;;;;;186.67;23.53;;;;;;;;;;4982778;28;20216;-51
2021/12/01 09:53:23;;;;;;;92.37;11.93;;;;;;;;;;4975898;28;20221;-51
2021/12/01 09:55:49;;;;;;;196.70;24.83;;;;;;;;;;4983988;28;20208;-51
2021/12/01 09:58:16;;;;;;;97.80;12.80;;;;;;;;;;4992696;28;20224;-51
2021/12/01 10:00:44;;;;;;;72.23;9.60;;;;;;;;;;4991591;28;20221;-51
2021/12/01 10:03:10;;;;;;;163.27;21.10;;;;;;;;;;4988998;28;20716;-51
2021/12/01 10:06:07;;;;;;;124.70;16.00;;;;;;;;;;4987869;28;20241;-51
2021/12/01 10:08:34;;;;;;;160.70;20.93;;;;;;;;;;4966248;28;20692;-51
2021/12/01 10:11:02;;;;;;;243.47;31.27;;;;;;;;;;4953676;28;20675;-51
2021/12/01 10:13:30;;;;;;;165.97;21.70;;;;;;;;;;4955431;28;20227;-51
2021/12/01 10:15:57;;;;;;;232.20;30.07;;;;;;;;;;4967558;28;20235;-51
2021/12/01 10:18:25;;;;;;;307.80;35.63;;;;;;;;;;4991671;23;20346;-52
2021/12/01 10:20:58;;;;;;;314.60;35.70;;;;;;;;;;4984499;28;20217;-51
2021/12/01 10:23:24;;;;;;;201.07;22.87;;;;;;;;;;5005499;28;20220;-51
2021/12/01 10:25:50;;;;;;;167.97;19.23;;;;;;;;;;5001371;28;20259;-52
2021/12/01 10:28:33;;;;;;;267.03;30.80;;;;;;;;;;4995523;28;20253;-52
2021/12/01 10:31:00;;;;;;;293.50;34.57;;;;;;;;;;4994093;28;20302;-52
2021/12/01 10:33:28;;;;;;;185.00;21.10;;;;;;;;;;5010553;28;20537;-52
2021/12/01 10:35:54;;;;;;;119.70;13.87;;;;;;;;;;5000648;28;20227;-52
2021/12/01 10:38:28;;;;;;;289.27;34.03;;;;;;;;;;4992455;28;20833;-53
2021/12/01 10:41:01;;;;;;;165.07;19.60;;;;;;;;;;5005468;28;21515;-53
2021/12/01 10:43:35;;;;;;;153.23;17.73;;;;;;;;;;5007749;28;20212;-52
2021/12/01 10:46:06;;;;;;;200.07;24.90;;;;;;;;;;5004732;28;20218;-52
2021/12/01 10:48:32;;;;;;;122.73;14.53;;;;;;;;;;5003653;28;20323;-53
2021/12/01 10:50:58;;;;;;;303.13;35.27;;;;;;;;;;4990128;28;20219;-52
2021/12/01 10:53:26;;;;;;;180.90;20.87;;;;;;;;;;5002151;28;20215;-51
2021/12/01 10:55:56;;;;;;;277.13;32.70;;;;;;;;;;5004684;28;20298;-52
2021/12/01 10:58:23;;;;;;;153.70;18.23;;;;;;;;;;5015845;28;20756;-51
2021/12/01 11:00:51;;;;;;;235.07;27.53;;;;;;;;;;5006606;28;20298;-52
2021/12/01 11:03:18;;;;;;;316.43;38.00;;;;;;;;;;4999928;28;20208;-53
2021/12/01 11:05:46;;;;;;;270.37;31.37;;;;;;;;;;5003447;28;20215;-52
2021/12/01 11:08:17;;;;;;;176.50;20.43;;;;;;;;;;5001843;28;20226;-53
2021/12/01 11:10:50;;;;;;;185.83;22.13;;;;;;;;;;5015969;28;20193;-52
2021/12/01 11:13:18;;;;;;;287.93;34.83;;;;;;;;;;4997907;28;20464;-53
2021/12/01 11:15:45;;;;;;;224.20;26.40;;;;;;;;;;4998372;28;20302;-51
2021/12/01 11:18:16;;;;;;;281.50;33.57;;;;;;;;;;5000026;28;20960;-51
2021/12/01 11:20:44;;;;;;;222.80;25.77;;;;;;;;;;4997741;28;20223;-52
2021/12/01 11:23:14;;;;;;;182.43;21.37;;;;;;;;;;5011200;28;20643;-52
2021/12/01 11:25:41;;;;;;;108.10;12.97;;;;;;;;;;5022109;28;20199;-53
2021/12/01 11:28:08;;;;;;;204.67;24.00;;;;;;;;;;5006692;28;20269;-53
2021/12/01 11:30:37;;;;;;;179.80;21.10;;;;;;;;;;4986567;28;20227;-53
2021/12/01 11:33:04;;;;;;;240.97;28.23;;;;;;;;;;5005287;28;20257;-53
2021/12/01 11:35:30;;;;;;;196.67;22.87;;;;;;;;;;5005596;28;20391;-52
2021/12/01 11:37:57;;;;;;;244.57;29.57;;;;;;;;;;5013708;28;20683;-52
2021/12/01 11:40:27;;;;;;;262.20;31.03;;;;;;;;;;5000337;28;20316;-52
2021/12/01 11:42:53;;;;;;;211.20;24.53;;;;;;;;;;4998143;28;20235;-52
2021/12/01 11:45:19;;;;;;;278.03;33.33;;;;;;;;;;5007139;28;20219;-50
2021/12/01 11:47:47;;;;;;;210.53;24.13;;;;;;;;;;4996746;28;21456;-52
2021/12/01 11:50:20;;;;;;;291.60;34.63;;;;;;;;;;5015047;28;20230;-51
2021/12/01 11:53:21;;;;;;;212.40;24.73;;;;;;;;;;5021058;28;20184;-51
2021/12/01 11:55:58;;;;;;;200.70;23.87;;;;;;;;;;4914666;28;20288;-53
2021/12/01 11:58:42;;;;;;;156.97;18.63;;;;;;;;;;5006148;28;20330;-53
2021/12/01 12:01:23;;;;;;;182.67;21.90;;;;;;;;;;5021126;28;20562;-52
2021/12/01 12:03:55;;;;;;;155.50;19.33;;;;;;;;;;5018235;28;20301;-52
2021/12/01 12:06:25;;;;;;;324.07;41.47;;;;;;;;;;5023114;28;20231;-52
2021/12/01 12:08:54;;;;;;;159.50;19.40;;;;;;;;;;5007299;28;20282;-52
2021/12/01 12:11:36;;;;;;;169.93;20.83;;;;;;;;;;5012341;28;20757;-52
2021/12/01 12:14:05;;;;;;;288.70;36.30;;;;;;;;;;4989221;28;20203;-51
2021/12/01 12:16:31;;;;;;;240.07;29.67;;;;;;;;;;5011284;28;20219;-53
2021/12/01 12:18:59;;;;;;;249.07;31.23;;;;;;;;;;5013999;28;20555;-52
2021/12/01 12:21:51;;;;;;;198.93;24.20;;;;;;;;;;5008632;28;20227;-53
2021/12/01 12:24:16;;;;;;;168.33;21.23;;;;;;;;;;5006904;28;20381;-52
2021/12/01 12:26:51;;;;;;;260.20;31.87;;;;;;;;;;5004607;28;21188;-52
2021/12/01 12:29:18;;;;;;;209.43;26.53;;;;;;;;;;5019701;28;20226;-53
2021/12/01 12:31:46;;;;;;;191.30;23.53;;;;;;;;;;5025970;28;20198;-52
2021/12/01 12:34:16;;;;;;;182.47;23.43;;;;;;;;;;5020369;28;20220;-52
2021/12/01 12:36:49;;;;;;;181.07;22.67;;;;;;;;;;5022188;28;20216;-52
2021/12/01 12:39:16;;;;;;;82.10;10.20;;;;;;;;;;5023783;28;20219;-52
2021/12/01 12:42:04;;;;;;;142.13;17.57;;;;;;;;;;5026614;28;20296;-52
2021/12/01 12:44:41;;;;;;;114.90;14.37;;;;;;;;;;5025592;28;20219;-52
2021/12/01 12:47:09;;;;;;;76.90;9.77;;;;;;;;;;5029273;28;20200;-52
2021/12/01 12:49:38;;;;;;;126.83;15.43;;;;;;;;;;5034654;28;20188;-52
2021/12/01 12:52:22;;;;;;;101.90;12.73;;;;;;;;;;5033329;28;20243;-52
2021/12/01 12:54:48;;;;;;;156.77;18.93;;;;;;;;;;5031260;28;20223;-52
2021/12/01 12:57:16;;;;;;;170.83;20.67;;;;;;;;;;5024625;28;20223;-52
2021/12/01 12:59:42;;;;;;;168.33;19.37;;;;;;;;;;5021248;28;20298;-52
2021/12/01 13:02:09;;;;;;;188.03;23.57;;;;;;;;;;5018761;28;20265;-52
2021/12/01 13:04:47;;;;;;;185.13;22.17;;;;;;;;;;5017730;28;20218;-52
2021/12/01 13:07:32;;;;;;;114.17;13.53;;;;;;;;;;5019142;28;20227;-52
2021/12/01 13:10:14;;;;;;;281.10;35.10;;;;;;;;;;5004146;28;20296;-52
2021/12/01 13:13:06;;;;;;;99.67;12.27;;;;;;;;;;5030023;28;20215;-52
2021/12/01 13:15:34;;;;;;;98.50;12.30;;;;;;;;;;5026850;28;20391;-52
2021/12/01 13:18:05;;;;;;;110.40;13.37;;;;;;;;;;5033883;28;20346;-52
2021/12/01 13:20:32;;;;;;;177.20;21.20;;;;;;;;;;5026519;28;20207;-52
2021/12/01 13:23:03;;;;;;;219.20;26.87;;;;;;;;;;5024687;28;20276;-52
2021/12/01 13:25:29;;;;;;;209.70;24.67;;;;;;;;;;5014201;28;20215;-52
2021/12/01 13:27:55;;;;;;;191.67;23.20;;;;;;;;;;5022838;28;20342;-52
2021/12/01 13:30:21;;;;;;;186.30;22.10;;;;;;;;;;5022135;28;20208;-52
2021/12/01 13:33:04;;;;;;;193.57;23.30;;;;;;;;;;5024919;28;20226;-52
2021/12/01 13:35:30;;;;;;;113.83;14.30;;;;;;;;;;5033632;28;20667;-52
2021/12/01 13:37:57;;;;;;;358.07;43.30;;;;;;;;;;5019043;28;20183;-52
2021/12/01 13:40:26;;;;;;;191.17;23.17;;;;;;;;;;5017338;28;20669;-50
2021/12/01 13:42:52;;;;;;;204.17;25.13;;;;;;;;;;5015511;28;20227;-50
2021/12/01 13:45:18;;;;;;;228.03;28.37;;;;;;;;;;5019874;28;20277;-50
2021/12/01 13:47:44;;;;;;;280.73;34.63;;;;;;;;;;5014920;28;20317;-51
2021/12/01 13:50:10;;;;;;;227.57;27.23;;;;;;;;;;5016768;28;20199;-51
2021/12/01 13:52:38;;;;;;;212.93;26.80;;;;;;;;;;5015179;28;20202;-51
2021/12/01 13:55:18;;;;;;;176.20;20.70;;;;;;;;;;5022661;28;20227;-51
2021/12/01 13:57:45;;;;;;;191.80;23.13;;;;;;;;;;5014705;28;20357;-51
2021/12/01 14:00:11;;;;;;;239.70;29.00;;;;;;;;;;5018628;28;20224;-51
2021/12/01 14:02:37;;;;;;;126.33;15.37;;;;;;;;;;5024199;28;20306;-51
2021/12/01 14:05:04;;;;;;;189.23;23.20;;;;;;;;;;5031720;28;20238;-52
2021/12/01 14:07:49;;;;;;;200.10;24.10;;;;;;;;;;5019466;28;20234;-51
2021/12/01 14:10:15;;;;;;;109.97;13.73;;;;;;;;;;5022501;28;20572;-51
2021/12/01 14:12:42;;;;;;;245.60;29.40;;;;;;;;;;5018829;28;20225;-51
2021/12/01 14:15:08;;;;;;;182.13;21.67;;;;;;;;;;5033044;28;20615;-51
2021/12/01 14:17:34;;;;;;;229.93;28.80;;;;;;;;;;5022463;28;20484;-51
2021/12/01 14:20:00;;;;;;;121.07;15.90;;;;;;;;;;5022685;28;20794;-52
2021/12/01 14:22:27;;;;;;;143.20;17.50;;;;;;;;;;5026368;28;20183;-51